sensor_id;sensor_type;location;lat;lon;timestamp;P1;durP1;ratioP1;P2;durP2;ratioP2
40244;SDS011;25963;42.694;23.600;2023-07-31T00:01:42;8.93;;;6.68;;
40244;SDS011;25963;42.694;23.600;2023-07-31T00:04:07;7.45;;;6.65;;
40244;SDS011;25963;42.694;23.600;2023-07-31T00:06:33;8.50;;;6.82;;
40244;SDS011;25963;42.694;23.600;2023-07-31T00:08:58;8.30;;;7.07;;
40244;SDS011;25963;42.694;23.600;2023-07-31T00:11:24;8.02;;;6.80;;
40244;SDS011;25963;42.694;23.600;2023-07-31T00:13:49;9.13;;;6.43;;
40244;SDS011;25963;42.694;23.600;2023-07-31T00:16:14;8.32;;;6.55;;
40244;SDS011;25963;42.694;23.600;2023-07-31T00:18:40;8.77;;;7.63;;
40244;SDS011;25963;42.694;23.600;2023-07-31T00:21:05;8.02;;;7.15;;
40244;SDS011;25963;42.694;23.600;2023-07-31T00:23:31;10.48;;;7.30;;
40244;SDS011;25963;42.694;23.600;2023-07-31T00:25:56;8.40;;;7.13;;
40244;SDS011;25963;42.694;23.600;2023-07-31T00:28:22;8.05;;;7.30;;
40244;SDS011;25963;42.694;23.600;2023-07-31T00:30:47;8.07;;;7.20;;
40244;SDS011;25963;42.694;23.600;2023-07-31T00:33:12;7.43;;;6.65;;
40244;SDS011;25963;42.694;23.600;2023-07-31T00:35:38;8.23;;;7.22;;
40244;SDS011;25963;42.694;23.600;2023-07-31T00:38:03;6.97;;;6.30;;
40244;SDS011;25963;42.694;23.600;2023-07-31T00:40:29;6.40;;;5.80;;
40244;SDS011;25963;42.694;23.600;2023-07-31T00:42:54;5.95;;;5.35;;
40244;SDS011;25963;42.694;23.600;2023-07-31T00:45:20;7.43;;;6.75;;
40244;SDS011;25963;42.694;23.600;2023-07-31T00:47:48;6.50;;;5.90;;
40244;SDS011;25963;42.694;23.600;2023-07-31T00:50:13;8.70;;;6.53;;
40244;SDS011;25963;42.694;23.600;2023-07-31T00:52:39;6.50;;;5.88;;
40244;SDS011;25963;42.694;23.600;2023-07-31T00:55:05;8.07;;;6.32;;
40244;SDS011;25963;42.694;23.600;2023-07-31T00:57:31;7.15;;;6.55;;
40244;SDS011;25963;42.694;23.600;2023-07-31T00:59:58;7.28;;;6.57;;
40244;SDS011;25963;42.694;23.600;2023-07-31T01:02:23;6.68;;;6.05;;
40244;SDS011;25963;42.694;23.600;2023-07-31T01:04:49;7.32;;;6.63;;
40244;SDS011;25963;42.694;23.600;2023-07-31T01:09:49;6.88;;;6.22;;
40244;SDS011;25963;42.694;23.600;2023-07-31T01:12:27;7.03;;;6.30;;
40244;SDS011;25963;42.694;23.600;2023-07-31T01:17:25;7.03;;;6.30;;
40244;SDS011;25963;42.694;23.600;2023-07-31T01:19:51;8.02;;;6.65;;
40244;SDS011;25963;42.694;23.600;2023-07-31T01:28:20;9.40;;;6.00;;
40244;SDS011;25963;42.694;23.600;2023-07-31T01:30:52;7.28;;;6.47;;
40244;SDS011;25963;42.694;23.600;2023-07-31T01:33:20;7.75;;;7.05;;
40244;SDS011;25963;42.694;23.600;2023-07-31T01:35:46;7.38;;;6.78;;
40244;SDS011;25963;42.694;23.600;2023-07-31T01:38:13;7.45;;;6.63;;
40244;SDS011;25963;42.694;23.600;2023-07-31T01:40:42;6.50;;;5.90;;
40244;SDS011;25963;42.694;23.600;2023-07-31T01:43:08;7.35;;;6.75;;
40244;SDS011;25963;42.694;23.600;2023-07-31T01:45:33;6.70;;;6.10;;
40244;SDS011;25963;42.694;23.600;2023-07-31T01:47:58;8.43;;;6.50;;
40244;SDS011;25963;42.694;23.600;2023-07-31T01:50:24;6.80;;;6.22;;
40244;SDS011;25963;42.694;23.600;2023-07-31T01:52:49;6.82;;;6.28;;
40244;SDS011;25963;42.694;23.600;2023-07-31T01:55:15;7.32;;;6.70;;
40244;SDS011;25963;42.694;23.600;2023-07-31T01:57:40;7.70;;;6.95;;
40244;SDS011;25963;42.694;23.600;2023-07-31T02:00:06;7.80;;;7.10;;
40244;SDS011;25963;42.694;23.600;2023-07-31T02:02:32;7.35;;;6.35;;
40244;SDS011;25963;42.694;23.600;2023-07-31T02:04:58;9.43;;;7.25;;
40244;SDS011;25963;42.694;23.600;2023-07-31T02:07:23;7.90;;;7.13;;
40244;SDS011;25963;42.694;23.600;2023-07-31T02:09:48;9.48;;;7.60;;
40244;SDS011;25963;42.694;23.600;2023-07-31T02:12:14;7.70;;;7.00;;
40244;SDS011;25963;42.694;23.600;2023-07-31T02:14:40;7.22;;;6.53;;
40244;SDS011;25963;42.694;23.600;2023-07-31T02:17:06;7.22;;;6.60;;
40244;SDS011;25963;42.694;23.600;2023-07-31T02:19:31;7.75;;;7.05;;
40244;SDS011;25963;42.694;23.600;2023-07-31T02:21:56;8.98;;;8.00;;
40244;SDS011;25963;42.694;23.600;2023-07-31T02:24:22;9.52;;;8.57;;
40244;SDS011;25963;42.694;23.600;2023-07-31T02:26:48;10.60;;;9.60;;
40244;SDS011;25963;42.694;23.600;2023-07-31T02:29:14;12.80;;;9.40;;
40244;SDS011;25963;42.694;23.600;2023-07-31T02:31:39;12.07;;;10.38;;
40244;SDS011;25963;42.694;23.600;2023-07-31T02:34:05;10.85;;;9.95;;
40244;SDS011;25963;42.694;23.600;2023-07-31T02:36:30;12.80;;;11.05;;
40244;SDS011;25963;42.694;23.600;2023-07-31T02:38:56;11.65;;;10.63;;
40244;SDS011;25963;42.694;23.600;2023-07-31T02:41:21;12.27;;;11.05;;
40244;SDS011;25963;42.694;23.600;2023-07-31T02:43:46;12.23;;;11.10;;
40244;SDS011;25963;42.694;23.600;2023-07-31T02:46:12;10.57;;;9.27;;
40244;SDS011;25963;42.694;23.600;2023-07-31T02:48:37;9.82;;;8.93;;
40244;SDS011;25963;42.694;23.600;2023-07-31T02:51:03;10.43;;;9.43;;
40244;SDS011;25963;42.694;23.600;2023-07-31T02:53:28;9.65;;;8.73;;
40244;SDS011;25963;42.694;23.600;2023-07-31T02:55:54;10.23;;;9.27;;
40244;SDS011;25963;42.694;23.600;2023-07-31T02:58:19;11.27;;;10.02;;
40244;SDS011;25963;42.694;23.600;2023-07-31T03:00:44;12.43;;;11.20;;
40244;SDS011;25963;42.694;23.600;2023-07-31T03:03:10;12.05;;;10.85;;
40244;SDS011;25963;42.694;23.600;2023-07-31T03:05:36;12.70;;;10.85;;
40244;SDS011;25963;42.694;23.600;2023-07-31T03:08:01;11.45;;;10.35;;
40244;SDS011;25963;42.694;23.600;2023-07-31T03:10:27;15.02;;;12.15;;
40244;SDS011;25963;42.694;23.600;2023-07-31T03:12:52;13.82;;;12.52;;
40244;SDS011;25963;42.694;23.600;2023-07-31T03:15:18;16.88;;;14.40;;
40244;SDS011;25963;42.694;23.600;2023-07-31T03:17:43;16.23;;;14.73;;
40244;SDS011;25963;42.694;23.600;2023-07-31T03:20:09;17.23;;;15.63;;
40244;SDS011;25963;42.694;23.600;2023-07-31T03:22:34;17.70;;;16.00;;
40244;SDS011;25963;42.694;23.600;2023-07-31T03:25:01;19.40;;;17.50;;
40244;SDS011;25963;42.694;23.600;2023-07-31T03:27:27;19.20;;;16.70;;
40244;SDS011;25963;42.694;23.600;2023-07-31T03:29:52;18.10;;;16.25;;
40244;SDS011;25963;42.694;23.600;2023-07-31T03:32:18;18.77;;;16.38;;
40244;SDS011;25963;42.694;23.600;2023-07-31T03:34:43;18.30;;;15.70;;
40244;SDS011;25963;42.694;23.600;2023-07-31T03:37:09;19.02;;;17.05;;
40244;SDS011;25963;42.694;23.600;2023-07-31T03:39:34;17.30;;;15.50;;
40244;SDS011;25963;42.694;23.600;2023-07-31T03:42:00;20.27;;;17.27;;
40244;SDS011;25963;42.694;23.600;2023-07-31T03:44:25;19.10;;;17.23;;
40244;SDS011;25963;42.694;23.600;2023-07-31T03:46:51;18.08;;;16.38;;
40244;SDS011;25963;42.694;23.600;2023-07-31T03:49:16;17.92;;;16.15;;
40244;SDS011;25963;42.694;23.600;2023-07-31T03:51:42;17.60;;;15.88;;
40244;SDS011;25963;42.694;23.600;2023-07-31T03:54:07;18.38;;;16.50;;
40244;SDS011;25963;42.694;23.600;2023-07-31T03:56:33;16.90;;;15.27;;
40244;SDS011;25963;42.694;23.600;2023-07-31T03:58:59;15.32;;;13.75;;
40244;SDS011;25963;42.694;23.600;2023-07-31T04:01:24;17.70;;;14.07;;
40244;SDS011;25963;42.694;23.600;2023-07-31T04:03:49;16.42;;;14.43;;
40244;SDS011;25963;42.694;23.600;2023-07-31T04:06:15;14.82;;;13.45;;
40244;SDS011;25963;42.694;23.600;2023-07-31T04:08:43;17.02;;;12.68;;
40244;SDS011;25963;42.694;23.600;2023-07-31T04:11:11;12.50;;;11.27;;
40244;SDS011;25963;42.694;23.600;2023-07-31T04:13:37;12.43;;;11.32;;
40244;SDS011;25963;42.694;23.600;2023-07-31T04:16:03;13.85;;;12.20;;
40244;SDS011;25963;42.694;23.600;2023-07-31T04:18:28;14.75;;;12.48;;
40244;SDS011;25963;42.694;23.600;2023-07-31T04:20:56;13.45;;;12.07;;
40244;SDS011;25963;42.694;23.600;2023-07-31T04:23:22;13.80;;;12.32;;
40244;SDS011;25963;42.694;23.600;2023-07-31T04:25:47;12.70;;;11.40;;
40244;SDS011;25963;42.694;23.600;2023-07-31T04:28:12;12.77;;;11.40;;
40244;SDS011;25963;42.694;23.600;2023-07-31T04:30:38;11.93;;;10.77;;
40244;SDS011;25963;42.694;23.600;2023-07-31T04:33:04;12.40;;;11.20;;
40244;SDS011;25963;42.694;23.600;2023-07-31T04:35:29;11.80;;;10.70;;
40244;SDS011;25963;42.694;23.600;2023-07-31T04:37:54;13.35;;;11.95;;
40244;SDS011;25963;42.694;23.600;2023-07-31T04:40:20;13.15;;;11.93;;
40244;SDS011;25963;42.694;23.600;2023-07-31T04:42:46;15.52;;;13.93;;
40244;SDS011;25963;42.694;23.600;2023-07-31T04:45:11;15.63;;;14.05;;
40244;SDS011;25963;42.694;23.600;2023-07-31T04:47:37;16.98;;;15.15;;
40244;SDS011;25963;42.694;23.600;2023-07-31T04:50:02;17.77;;;16.05;;
40244;SDS011;25963;42.694;23.600;2023-07-31T04:52:28;18.80;;;17.00;;
40244;SDS011;25963;42.694;23.600;2023-07-31T04:54:53;21.02;;;18.63;;
40244;SDS011;25963;42.694;23.600;2023-07-31T04:57:18;21.75;;;19.67;;
40244;SDS011;25963;42.694;23.600;2023-07-31T04:59:44;24.27;;;21.95;;
40244;SDS011;25963;42.694;23.600;2023-07-31T05:02:11;24.95;;;21.95;;
40244;SDS011;25963;42.694;23.600;2023-07-31T05:04:38;23.85;;;21.40;;
40244;SDS011;25963;42.694;23.600;2023-07-31T05:07:03;26.92;;;24.02;;
40244;SDS011;25963;42.694;23.600;2023-07-31T05:09:29;26.40;;;23.60;;
40244;SDS011;25963;42.694;23.600;2023-07-31T05:11:54;28.40;;;25.38;;
40244;SDS011;25963;42.694;23.600;2023-07-31T05:14:20;28.58;;;25.48;;
40244;SDS011;25963;42.694;23.600;2023-07-31T05:16:45;25.42;;;22.80;;
40244;SDS011;25963;42.694;23.600;2023-07-31T05:19:11;28.45;;;25.73;;
40244;SDS011;25963;42.694;23.600;2023-07-31T05:21:36;27.90;;;24.77;;
40244;SDS011;25963;42.694;23.600;2023-07-31T05:24:02;31.33;;;27.95;;
40244;SDS011;25963;42.694;23.600;2023-07-31T05:26:28;31.25;;;27.90;;
40244;SDS011;25963;42.694;23.600;2023-07-31T05:28:53;33.78;;;30.23;;
40244;SDS011;25963;42.694;23.600;2023-07-31T05:31:18;35.58;;;31.73;;
40244;SDS011;25963;42.694;23.600;2023-07-31T05:33:45;36.55;;;32.67;;
40244;SDS011;25963;42.694;23.600;2023-07-31T05:36:11;38.78;;;33.95;;
40244;SDS011;25963;42.694;23.600;2023-07-31T05:38:36;35.00;;;31.23;;
40244;SDS011;25963;42.694;23.600;2023-07-31T05:41:02;37.90;;;33.00;;
40244;SDS011;25963;42.694;23.600;2023-07-31T05:43:27;34.55;;;31.02;;
40244;SDS011;25963;42.694;23.600;2023-07-31T05:45:53;33.78;;;30.17;;
40244;SDS011;25963;42.694;23.600;2023-07-31T05:48:18;34.38;;;30.80;;
40244;SDS011;25963;42.694;23.600;2023-07-31T05:50:44;34.25;;;30.55;;
40244;SDS011;25963;42.694;23.600;2023-07-31T05:53:09;33.88;;;30.48;;
40244;SDS011;25963;42.694;23.600;2023-07-31T05:55:35;34.30;;;30.70;;
40244;SDS011;25963;42.694;23.600;2023-07-31T05:58:01;32.85;;;29.58;;
40244;SDS011;25963;42.694;23.600;2023-07-31T06:00:26;30.70;;;27.65;;
40244;SDS011;25963;42.694;23.600;2023-07-31T06:02:52;30.30;;;27.25;;
40244;SDS011;25963;42.694;23.600;2023-07-31T06:05:18;29.35;;;26.25;;
40244;SDS011;25963;42.694;23.600;2023-07-31T06:07:44;28.23;;;25.40;;
40244;SDS011;25963;42.694;23.600;2023-07-31T06:10:09;26.85;;;24.33;;
40244;SDS011;25963;42.694;23.600;2023-07-31T06:12:35;26.77;;;24.17;;
40244;SDS011;25963;42.694;23.600;2023-07-31T06:15:04;24.02;;;21.60;;
40244;SDS011;25963;42.694;23.600;2023-07-31T06:17:29;24.70;;;22.40;;
40244;SDS011;25963;42.694;23.600;2023-07-31T06:19:56;24.15;;;21.88;;
40244;SDS011;25963;42.694;23.600;2023-07-31T06:22:21;23.20;;;20.73;;
40244;SDS011;25963;42.694;23.600;2023-07-31T06:24:47;22.40;;;20.30;;
40244;SDS011;25963;42.694;23.600;2023-07-31T06:27:12;19.58;;;17.75;;
40244;SDS011;25963;42.694;23.600;2023-07-31T06:29:37;21.45;;;19.35;;
40244;SDS011;25963;42.694;23.600;2023-07-31T06:32:03;20.02;;;18.15;;
40244;SDS011;25963;42.694;23.600;2023-07-31T06:34:29;19.58;;;17.88;;
40244;SDS011;25963;42.694;23.600;2023-07-31T06:36:55;17.77;;;16.17;;
40244;SDS011;25963;42.694;23.600;2023-07-31T06:39:21;19.63;;;17.75;;
40244;SDS011;25963;42.694;23.600;2023-07-31T06:41:46;18.92;;;17.15;;
40244;SDS011;25963;42.694;23.600;2023-07-31T06:44:12;18.10;;;16.38;;
40244;SDS011;25963;42.694;23.600;2023-07-31T06:46:37;15.98;;;14.57;;
40244;SDS011;25963;42.694;23.600;2023-07-31T06:49:03;15.52;;;14.00;;
40244;SDS011;25963;42.694;23.600;2023-07-31T06:51:28;15.63;;;14.07;;
40244;SDS011;25963;42.694;23.600;2023-07-31T06:53:56;16.02;;;14.43;;
40244;SDS011;25963;42.694;23.600;2023-07-31T06:56:22;14.18;;;12.82;;
40244;SDS011;25963;42.694;23.600;2023-07-31T06:58:48;13.13;;;11.90;;
40244;SDS011;25963;42.694;23.600;2023-07-31T07:01:13;11.52;;;10.52;;
40244;SDS011;25963;42.694;23.600;2023-07-31T07:03:39;13.07;;;11.95;;
40244;SDS011;25963;42.694;23.600;2023-07-31T07:06:04;18.25;;;16.55;;
40244;SDS011;25963;42.694;23.600;2023-07-31T07:08:30;14.10;;;12.90;;
40244;SDS011;25963;42.694;23.600;2023-07-31T07:10:55;13.43;;;12.10;;
40244;SDS011;25963;42.694;23.600;2023-07-31T07:13:21;13.02;;;11.93;;
40244;SDS011;25963;42.694;23.600;2023-07-31T07:15:50;13.30;;;11.15;;
40244;SDS011;25963;42.694;23.600;2023-07-31T07:18:16;11.48;;;10.48;;
40244;SDS011;25963;42.694;23.600;2023-07-31T07:20:52;10.02;;;9.10;;
40244;SDS011;25963;42.694;23.600;2023-07-31T07:23:18;11.65;;;9.75;;
40244;SDS011;25963;42.694;23.600;2023-07-31T07:25:44;10.65;;;9.55;;
40244;SDS011;25963;42.694;23.600;2023-07-31T07:28:11;11.20;;;10.20;;
40244;SDS011;25963;42.694;23.600;2023-07-31T07:30:37;11.20;;;10.30;;
40244;SDS011;25963;42.694;23.600;2023-07-31T07:33:02;12.30;;;9.10;;
40244;SDS011;25963;42.694;23.600;2023-07-31T07:35:28;9.98;;;9.07;;
40244;SDS011;25963;42.694;23.600;2023-07-31T07:37:54;9.70;;;8.80;;
40244;SDS011;25963;42.694;23.600;2023-07-31T07:40:20;9.40;;;8.50;;
40244;SDS011;25963;42.694;23.600;2023-07-31T07:42:46;10.07;;;9.10;;
40244;SDS011;25963;42.694;23.600;2023-07-31T07:45:11;10.38;;;9.38;;
40244;SDS011;25963;42.694;23.600;2023-07-31T07:47:37;10.05;;;9.00;;
40244;SDS011;25963;42.694;23.600;2023-07-31T07:50:04;10.10;;;9.10;;
40244;SDS011;25963;42.694;23.600;2023-07-31T07:52:30;9.75;;;8.98;;
40244;SDS011;25963;42.694;23.600;2023-07-31T07:54:55;10.48;;;8.25;;
40244;SDS011;25963;42.694;23.600;2023-07-31T07:57:20;11.32;;;9.15;;
40244;SDS011;25963;42.694;23.600;2023-07-31T07:59:46;9.43;;;7.40;;
40244;SDS011;25963;42.694;23.600;2023-07-31T08:02:11;9.05;;;7.88;;
40244;SDS011;25963;42.694;23.600;2023-07-31T08:04:37;8.60;;;7.70;;
40244;SDS011;25963;42.694;23.600;2023-07-31T08:07:02;7.97;;;7.20;;
40244;SDS011;25963;42.694;23.600;2023-07-31T08:09:28;10.48;;;7.55;;
40244;SDS011;25963;42.694;23.600;2023-07-31T08:11:53;7.78;;;7.15;;
40244;SDS011;25963;42.694;23.600;2023-07-31T08:14:19;10.88;;;7.15;;
40244;SDS011;25963;42.694;23.600;2023-07-31T08:16:45;8.00;;;7.25;;
40244;SDS011;25963;42.694;23.600;2023-07-31T08:19:10;8.10;;;7.40;;
40244;SDS011;25963;42.694;23.600;2023-07-31T08:21:36;12.07;;;7.78;;
40244;SDS011;25963;42.694;23.600;2023-07-31T08:24:01;9.60;;;8.23;;
40244;SDS011;25963;42.694;23.600;2023-07-31T08:26:27;7.80;;;7.10;;
40244;SDS011;25963;42.694;23.600;2023-07-31T08:28:52;7.90;;;7.20;;
40244;SDS011;25963;42.694;23.600;2023-07-31T08:31:18;7.38;;;6.55;;
40244;SDS011;25963;42.694;23.600;2023-07-31T08:33:44;6.72;;;5.90;;
40244;SDS011;25963;42.694;23.600;2023-07-31T08:36:09;12.48;;;6.68;;
40244;SDS011;25963;42.694;23.600;2023-07-31T08:38:35;12.05;;;6.18;;
40244;SDS011;25963;42.694;23.600;2023-07-31T08:41:02;6.55;;;5.85;;
40244;SDS011;25963;42.694;23.600;2023-07-31T08:43:28;6.32;;;5.70;;
40244;SDS011;25963;42.694;23.600;2023-07-31T08:45:54;6.15;;;5.55;;
40244;SDS011;25963;42.694;23.600;2023-07-31T08:48:21;5.55;;;5.05;;
40244;SDS011;25963;42.694;23.600;2023-07-31T08:50:47;6.55;;;5.95;;
40244;SDS011;25963;42.694;23.600;2023-07-31T08:53:13;6.57;;;5.93;;
40244;SDS011;25963;42.694;23.600;2023-07-31T08:55:38;6.38;;;5.75;;
40244;SDS011;25963;42.694;23.600;2023-07-31T08:58:05;11.75;;;7.90;;
40244;SDS011;25963;42.694;23.600;2023-07-31T09:00:31;8.90;;;6.72;;
40244;SDS011;25963;42.694;23.600;2023-07-31T09:03:18;8.07;;;6.05;;
40244;SDS011;25963;42.694;23.600;2023-07-31T09:05:44;7.82;;;5.88;;
40244;SDS011;25963;42.694;23.600;2023-07-31T09:08:11;5.95;;;5.35;;
40244;SDS011;25963;42.694;23.600;2023-07-31T09:10:42;8.57;;;5.50;;
40244;SDS011;25963;42.694;23.600;2023-07-31T09:13:12;6.20;;;5.70;;
40244;SDS011;25963;42.694;23.600;2023-07-31T09:15:38;11.75;;;5.53;;
40244;SDS011;25963;42.694;23.600;2023-07-31T09:18:05;5.65;;;5.15;;
40244;SDS011;25963;42.694;23.600;2023-07-31T09:20:32;5.43;;;4.93;;
40244;SDS011;25963;42.694;23.600;2023-07-31T09:25:37;6.35;;;5.75;;
40244;SDS011;25963;42.694;23.600;2023-07-31T09:28:04;5.82;;;5.32;;
40244;SDS011;25963;42.694;23.600;2023-07-31T09:30:44;6.33;;;5.80;;
40244;SDS011;25963;42.694;23.600;2023-07-31T09:33:11;10.77;;;5.20;;
40244;SDS011;25963;42.694;23.600;2023-07-31T09:35:38;5.88;;;5.22;;
40244;SDS011;25963;42.694;23.600;2023-07-31T09:38:06;6.72;;;5.70;;
40244;SDS011;25963;42.694;23.600;2023-07-31T09:40:35;5.30;;;4.88;;
40244;SDS011;25963;42.694;23.600;2023-07-31T09:43:09;5.60;;;5.00;;
40244;SDS011;25963;42.694;23.600;2023-07-31T09:45:39;5.55;;;5.05;;
40244;SDS011;25963;42.694;23.600;2023-07-31T09:48:10;6.18;;;5.15;;
40244;SDS011;25963;42.694;23.600;2023-07-31T09:50:41;7.07;;;4.78;;
40244;SDS011;25963;42.694;23.600;2023-07-31T09:53:09;5.90;;;5.25;;
40244;SDS011;25963;42.694;23.600;2023-07-31T09:55:35;4.82;;;4.43;;
40244;SDS011;25963;42.694;23.600;2023-07-31T09:58:05;5.47;;;4.97;;
40244;SDS011;25963;42.694;23.600;2023-07-31T10:00:32;4.70;;;4.23;;
40244;SDS011;25963;42.694;23.600;2023-07-31T10:02:58;6.40;;;4.22;;
40244;SDS011;25963;42.694;23.600;2023-07-31T10:05:27;4.45;;;4.03;;
40244;SDS011;25963;42.694;23.600;2023-07-31T10:07:58;5.30;;;4.90;;
40244;SDS011;25963;42.694;23.600;2023-07-31T10:10:24;4.75;;;4.15;;
40244;SDS011;25963;42.694;23.600;2023-07-31T10:12:50;4.93;;;4.53;;
40244;SDS011;25963;42.694;23.600;2023-07-31T10:15:17;4.82;;;4.30;;
40244;SDS011;25963;42.694;23.600;2023-07-31T10:17:43;4.05;;;3.67;;
40244;SDS011;25963;42.694;23.600;2023-07-31T10:20:11;5.82;;;3.80;;
40244;SDS011;25963;42.694;23.600;2023-07-31T10:22:37;3.95;;;3.55;;
40244;SDS011;25963;42.694;23.600;2023-07-31T10:25:04;3.97;;;3.63;;
40244;SDS011;25963;42.694;23.600;2023-07-31T10:27:32;4.78;;;4.30;;
40244;SDS011;25963;42.694;23.600;2023-07-31T10:30:00;3.90;;;3.55;;
40244;SDS011;25963;42.694;23.600;2023-07-31T10:32:29;3.65;;;3.35;;
40244;SDS011;25963;42.694;23.600;2023-07-31T10:34:55;4.22;;;3.83;;
40244;SDS011;25963;42.694;23.600;2023-07-31T10:37:22;3.55;;;3.25;;
40244;SDS011;25963;42.694;23.600;2023-07-31T10:39:56;4.35;;;2.95;;
40244;SDS011;25963;42.694;23.600;2023-07-31T10:42:34;3.45;;;3.15;;
40244;SDS011;25963;42.694;23.600;2023-07-31T10:45:05;4.65;;;3.15;;
40244;SDS011;25963;42.694;23.600;2023-07-31T10:47:45;3.25;;;2.95;;
40244;SDS011;25963;42.694;23.600;2023-07-31T10:52:49;2.88;;;2.67;;
40244;SDS011;25963;42.694;23.600;2023-07-31T10:57:50;3.25;;;2.65;;
40244;SDS011;25963;42.694;23.600;2023-07-31T11:00:26;2.88;;;2.67;;
40244;SDS011;25963;42.694;23.600;2023-07-31T11:05:46;4.18;;;2.70;;
40244;SDS011;25963;42.694;23.600;2023-07-31T11:08:25;2.85;;;2.47;;
40244;SDS011;25963;42.694;23.600;2023-07-31T11:13:26;4.90;;;2.33;;
40244;SDS011;25963;42.694;23.600;2023-07-31T11:15:51;9.32;;;2.72;;
40244;SDS011;25963;42.694;23.600;2023-07-31T11:18:17;2.45;;;2.17;;
40244;SDS011;25963;42.694;23.600;2023-07-31T11:20:43;2.40;;;2.17;;
40244;SDS011;25963;42.694;23.600;2023-07-31T11:23:09;5.25;;;2.65;;
40244;SDS011;25963;42.694;23.600;2023-07-31T11:25:35;8.85;;;2.20;;
40244;SDS011;25963;42.694;23.600;2023-07-31T11:28:11;4.32;;;2.50;;
40244;SDS011;25963;42.694;23.600;2023-07-31T11:30:38;2.78;;;1.90;;
40244;SDS011;25963;42.694;23.600;2023-07-31T11:33:06;2.88;;;2.67;;
40244;SDS011;25963;42.694;23.600;2023-07-31T11:35:43;2.80;;;2.60;;
40244;SDS011;25963;42.694;23.600;2023-07-31T11:38:24;6.72;;;2.70;;
40244;SDS011;25963;42.694;23.600;2023-07-31T11:40:52;2.53;;;2.30;;
40244;SDS011;25963;42.694;23.600;2023-07-31T11:43:19;4.88;;;2.40;;
40244;SDS011;25963;42.694;23.600;2023-07-31T11:45:49;2.50;;;2.30;;
40244;SDS011;25963;42.694;23.600;2023-07-31T11:48:22;2.50;;;2.30;;
40244;SDS011;25963;42.694;23.600;2023-07-31T11:50:49;3.38;;;2.40;;
40244;SDS011;25963;42.694;23.600;2023-07-31T11:53:17;2.85;;;2.65;;
40244;SDS011;25963;42.694;23.600;2023-07-31T11:55:47;3.38;;;2.08;;
40244;SDS011;25963;42.694;23.600;2023-07-31T11:58:13;3.47;;;2.20;;
40244;SDS011;25963;42.694;23.600;2023-07-31T12:00:40;2.28;;;2.08;;
40244;SDS011;25963;42.694;23.600;2023-07-31T12:03:06;3.88;;;2.33;;
40244;SDS011;25963;42.694;23.600;2023-07-31T12:05:32;2.50;;;2.30;;
40244;SDS011;25963;42.694;23.600;2023-07-31T12:07:57;2.40;;;2.05;;
40244;SDS011;25963;42.694;23.600;2023-07-31T12:12:59;2.38;;;2.17;;
40244;SDS011;25963;42.694;23.600;2023-07-31T12:15:30;3.30;;;2.25;;
40244;SDS011;25963;42.694;23.600;2023-07-31T12:18:05;2.88;;;2.42;;
40244;SDS011;25963;42.694;23.600;2023-07-31T12:20:42;2.38;;;2.17;;
40244;SDS011;25963;42.694;23.600;2023-07-31T12:23:13;9.15;;;3.20;;
40244;SDS011;25963;42.694;23.600;2023-07-31T12:25:40;6.15;;;2.65;;
40244;SDS011;25963;42.694;23.600;2023-07-31T12:28:06;3.92;;;2.40;;
40244;SDS011;25963;42.694;23.600;2023-07-31T12:30:36;2.40;;;2.20;;
40244;SDS011;25963;42.694;23.600;2023-07-31T12:33:03;2.55;;;2.17;;
40244;SDS011;25963;42.694;23.600;2023-07-31T12:35:48;2.13;;;2.03;;
40244;SDS011;25963;42.694;23.600;2023-07-31T12:38:14;3.70;;;2.33;;
40244;SDS011;25963;42.694;23.600;2023-07-31T12:40:40;2.47;;;2.28;;
40244;SDS011;25963;42.694;23.600;2023-07-31T12:43:06;2.33;;;2.13;;
40244;SDS011;25963;42.694;23.600;2023-07-31T12:45:33;2.67;;;2.25;;
40244;SDS011;25963;42.694;23.600;2023-07-31T12:47:59;2.28;;;2.08;;
40244;SDS011;25963;42.694;23.600;2023-07-31T12:50:25;2.83;;;1.80;;
40244;SDS011;25963;42.694;23.600;2023-07-31T12:52:51;2.47;;;2.10;;
40244;SDS011;25963;42.694;23.600;2023-07-31T12:55:17;3.35;;;2.05;;
40244;SDS011;25963;42.694;23.600;2023-07-31T12:57:43;5.00;;;2.33;;
40244;SDS011;25963;42.694;23.600;2023-07-31T13:00:09;3.10;;;1.80;;
40244;SDS011;25963;42.694;23.600;2023-07-31T13:02:36;3.20;;;2.10;;
40244;SDS011;25963;42.694;23.600;2023-07-31T13:05:02;2.70;;;2.22;;
40244;SDS011;25963;42.694;23.600;2023-07-31T13:07:27;3.13;;;2.20;;
40244;SDS011;25963;42.694;23.600;2023-07-31T13:09:53;3.95;;;2.20;;
40244;SDS011;25963;42.694;23.600;2023-07-31T13:12:18;3.80;;;3.25;;
40244;SDS011;25963;42.694;23.600;2023-07-31T13:14:43;6.57;;;4.10;;
40244;SDS011;25963;42.694;23.600;2023-07-31T13:17:09;5.25;;;3.92;;
40244;SDS011;25963;42.694;23.600;2023-07-31T13:19:34;5.00;;;4.47;;
40244;SDS011;25963;42.694;23.600;2023-07-31T13:22:00;5.30;;;4.53;;
40244;SDS011;25963;42.694;23.600;2023-07-31T13:24:25;5.18;;;4.78;;
40244;SDS011;25963;42.694;23.600;2023-07-31T13:26:50;5.32;;;4.93;;
40244;SDS011;25963;42.694;23.600;2023-07-31T13:29:16;5.15;;;4.75;;
40244;SDS011;25963;42.694;23.600;2023-07-31T13:31:41;5.05;;;4.65;;
40244;SDS011;25963;42.694;23.600;2023-07-31T13:34:07;3.83;;;3.47;;
40244;SDS011;25963;42.694;23.600;2023-07-31T13:36:32;2.97;;;2.53;;
40244;SDS011;25963;42.694;23.600;2023-07-31T13:38:59;2.38;;;2.15;;
40244;SDS011;25963;42.694;23.600;2023-07-31T13:41:24;3.55;;;2.33;;
40244;SDS011;25963;42.694;23.600;2023-07-31T13:43:50;2.67;;;2.47;;
40244;SDS011;25963;42.694;23.600;2023-07-31T13:46:15;3.00;;;2.80;;
40244;SDS011;25963;42.694;23.600;2023-07-31T13:48:41;3.63;;;2.72;;
40244;SDS011;25963;42.694;23.600;2023-07-31T13:51:06;3.22;;;2.70;;
40244;SDS011;25963;42.694;23.600;2023-07-31T13:53:32;4.55;;;3.40;;
40244;SDS011;25963;42.694;23.600;2023-07-31T13:55:57;4.10;;;3.72;;
40244;SDS011;25963;42.694;23.600;2023-07-31T13:58:22;5.57;;;3.83;;
40244;SDS011;25963;42.694;23.600;2023-07-31T14:00:48;5.53;;;4.03;;
40244;SDS011;25963;42.694;23.600;2023-07-31T14:03:13;4.40;;;4.10;;
40244;SDS011;25963;42.694;23.600;2023-07-31T14:05:39;7.10;;;4.88;;
40244;SDS011;25963;42.694;23.600;2023-07-31T14:08:04;7.97;;;4.60;;
40244;SDS011;25963;42.694;23.600;2023-07-31T14:10:30;3.65;;;3.08;;
40244;SDS011;25963;42.694;23.600;2023-07-31T14:12:55;4.07;;;2.25;;
40244;SDS011;25963;42.694;23.600;2023-07-31T14:15:21;3.65;;;2.40;;
40244;SDS011;25963;42.694;23.600;2023-07-31T14:17:46;4.10;;;3.00;;
40244;SDS011;25963;42.694;23.600;2023-07-31T14:20:12;3.15;;;2.40;;
40244;SDS011;25963;42.694;23.600;2023-07-31T14:22:37;3.72;;;2.25;;
40244;SDS011;25963;42.694;23.600;2023-07-31T14:25:03;3.00;;;2.22;;
40244;SDS011;25963;42.694;23.600;2023-07-31T14:27:29;2.97;;;2.40;;
40244;SDS011;25963;42.694;23.600;2023-07-31T14:29:54;1.88;;;1.77;;
40244;SDS011;25963;42.694;23.600;2023-07-31T14:32:20;1.80;;;1.58;;
40244;SDS011;25963;42.694;23.600;2023-07-31T14:34:48;2.72;;;2.53;;
40244;SDS011;25963;42.694;23.600;2023-07-31T14:37:14;4.78;;;2.13;;
40244;SDS011;25963;42.694;23.600;2023-07-31T14:39:39;2.78;;;2.38;;
40244;SDS011;25963;42.694;23.600;2023-07-31T14:42:04;2.25;;;2.05;;
40244;SDS011;25963;42.694;23.600;2023-07-31T14:44:30;8.23;;;2.30;;
40244;SDS011;25963;42.694;23.600;2023-07-31T14:46:56;2.60;;;2.15;;
40244;SDS011;25963;42.694;23.600;2023-07-31T14:49:21;3.00;;;1.98;;